Sitka Rocky Gutierrez, AK

12:21 PM AKDT on July 23, 2014 (GMT -0800)
Kake (PAFE) Elev 171 ft | 56.96 °N, 133.91 °W | Change Station

Current weather conditions updated 5 minutes ago

Overcast
Overcast
59 °F
Feels Like 59 °F
N
0
Wind Variable Wind from North

Today is forecast to be Cooler than yesterday. Showers late tonight.

Today
High -- | Low -- °F
--% Chance of Precip.
Yesterday
High -- | Low -- °F
Precip. -- in
4:43 AM 9:31 PM
Waning Crescent, 9% visible
Pressure 30.09 in
Visibility 10.0 miles
Clouds Mostly Cloudy 2700 ft
Overcast 3500 ft
Dew Point 52 °F
Humidity 77%
Rainfall 0.08 in
Snow Depth Not available.
UV 2 out of 12
Pollen Not available.
Air Quality Not available.
Flu Activity Not available.
METAR PAFE 232016Z AUTO 00000KT 10SM BKN027 OVC035 15/11 A3009 RMK AO1

More Conditions Fewer Conditions

Pressure 30.09 in
Visibility 10.0 miles
Clouds Mostly Cloudy 2700 ft
Overcast 3500 ft
Dew Point 52 °F
Humidity 77%
Rainfall 0.08 in
Snow Depth Not available.
UV 2 out of 12
Pollen Not available.
Air Quality Not available.
Flu Activity Not available.
METAR PAFE 232016Z AUTO 00000KT 10SM BKN027 OVC035 15/11 A3009 RMK AO1

More Conditions Fewer Conditions

10-Day Weather Forecast

Almanac

Astronomy

Jul. 23, 2014 Rise Set
Actual Time 4:43 AM AKDT 9:31 PM AKDT
Civil Twilight 3:47 AM AKDT 10:26 PM AKDT
Nautical Twilight 2:04 AM AKDT 12:05 AM AKDT
Astronomical Twilight Sun does not rise Sun does not rise
Moon 2:14 AM AKDT 7:00 PM AKDT
Length of Visible Light 18h 38m
Length of Day
16h 48m
Tomorrow will be 3m 38s shorter.
Waning Crescent, 9% of the Moon is Illuminated
Today
Waning Crescent
Jul 26
New
Aug 3
First Quarter
Aug 10
Full
Aug 17
Last Quarter

Today's Extremes

State Highs State Lows

Community

WunderPhotos

Upload Photos

1,736,758 photos uploaded!

Nearby

Snow Depth

Station Depth Elevation
Long Lake 0 in 820 ft
Upper Tsaina River 0 in 1750 ft
Moraine 0 in 2100 ft
Grandview 1 in 1100 ft
Grouse Creek Divide 0 in 700 ft

Earthquake Activity

City Distance Mag. Time & Date
No recent earthquake activity has been reported nearby.
Minimum magnitude displayed is 2.5.

Coastal Water Temperatures

Place Temperature
No Stations Reporting

Nearby Weather Stations

Station Location Temp. Dew Point Humidity Wind Precip. Elev Updated Type
HADS TAKATZ C NR BARANOF AK , Sitka, AK 68 °F - - North  at  - 0.00 in / hr 227 ft 11:00 AM AKDT MADIS

Show More Stations Show Fewer Stations